Happy Valentine's Day! 

Flight Track Log - Related Links

Times and Time Zones

All times are in EDT time to prevent confusion due to time zone crossing. See the CTL15 flight status page for this flight to view local times or setup timezone preferences in your user account.


Time Position Orientation Groundspeed Altitude Reporting Facility
EDT Latitude Longitude Course Direction KTS MPH feet Rate Location/Type
Tue 07:53:18 PM 39.6372 -84.1011 43° Northeast 142 163 4,900  Level Indianapolis Center
Tue 07:54:12 PM 39.6622 -84.0761 38° Northeast 135 155 5,600 621 Climbing Indianapolis Center
Tue 07:55:14 PM 39.6936 -84.0400 42° Northeast 143 165 6,100 541 Climbing Indianapolis Center
Tue 07:56:14 PM 39.7294 -83.9939 45° Northeast 165 190 6,700 439 Climbing Indianapolis Center
Tue 07:57:17 PM 39.7608 -83.9558 43° Northeast 163 188 7,000 228 Climbing Indianapolis Center
Tue 07:57:33 PM 39.7758 -83.9375 43° Northeast 179 206 7,000  Level Indianapolis Center
Tue 07:58:19 PM 39.7989 -83.9097 43° Northeast 174 200 7,000  Level Indianapolis Center
Tue 07:58:34 PM 39.8147 -83.8936 38° Northeast 190 219 7,000  Level Indianapolis Center
Tue 07:59:28 PM 39.8494 -83.8492 44° Northeast 193 222 7,000  Level Indianapolis Center
Tue 08:00:22 PM 39.8853 -83.8047 44° Northeast 191 220 7,000  Level Indianapolis Center
Tue 08:01:24 PM 39.9253 -83.7550 44° Northeast 194 223 7,000  Level Indianapolis Center
Tue 08:02:26 PM 39.9658 -83.7053 43° Northeast 196 226 7,000  Level Indianapolis Center
Tue 08:03:28 PM 40.0061 -83.6556 43° Northeast 197 227 7,000  Level Indianapolis Center
Tue 08:04:29 PM 40.0469 -83.6053 43° Northeast 197 227 7,000  Level Indianapolis Center
Tue 08:05:31 PM 40.0861 -83.5533 45° Northeast 198 228 7,000  Level Indianapolis Center
Tue 08:06:22 PM 40.1197 -83.5097 45° Northeast 197 227 7,000  Level Indianapolis Center
Tue 08:07:34 PM 40.1658 -83.4517 44° Northeast 199 229 7,000  Level Indianapolis Center
Tue 08:08:23 PM 40.2003 -83.4078 44° Northeast 198 228 7,000  Level Indianapolis Center
Tue 08:09:38 PM 40.2467 -83.3500 44° Northeast 201 231 7,000  Level Indianapolis Center
Tue 08:10:40 PM 40.2861 -83.2994 44° Northeast 197 227 7,000  Level Indianapolis Center
Tue 08:11:41 PM 40.3244 -83.2492 45° Northeast 193 222 7,000  Level Indianapolis Center
Tue 08:12:43 PM 40.3708 -83.1914 43° Northeast 195 224 7,000  Level Indianapolis Center
Tue 08:13:45 PM 40.4092 -83.1417 45° Northeast 194 223 7,000  Level Indianapolis Center
Tue 08:14:47 PM 40.4481 -83.0911 45° Northeast 194 223 7,000  Level Indianapolis Center
Tue 08:15:48 PM 40.4875 -83.0403 44° Northeast 196 226 7,000  Level Indianapolis Center
Tue 08:16:50 PM 40.5258 -82.9914 44° Northeast 196 226 7,000 48 Level Indianapolis Center
Tue 08:17:52 PM 40.5644 -82.9411 45° Northeast 194 223 7,100  Climbing Indianapolis Center
Tue 08:18:54 PM 40.6031 -82.8897 45° Northeast 195 224 7,000 -49 Descending Indianapolis Center
Tue 08:19:55 PM 40.6422 -82.8414 43° Northeast 193 222 7,000 -49 Level Indianapolis Center
Tue 08:20:57 PM 40.6856 -82.7825 46° Northeast 190 219 6,900 -242 Descending Indianapolis Center
Tue 08:21:59 PM 40.7261 -82.7306 44° Northeast 198 228 6,500 -387 Descending Indianapolis Center
Tue 08:23:01 PM 40.7672 -82.6769 45° Northeast 206 237 6,100 -390 Descending Indianapolis Center
Tue 08:24:02 PM 40.8081 -82.6225 45° Northeast 207 238 5,700 -393 Descending Indianapolis Center

Login

Don't have an account? Register now (free) for customized features, flight alerts, and more!